Terminal Aerodrome Forecast
Issued by NWS

Home | Current Version | Previous Version | Text Only | Print | Product List | Glossary On
Versions: 1 2 3 4 5 6 7 8 9 10 11 12 13 14 15 16 17 18 19 20 21 22 23 24 25 26 27 28 29 30 31 32 33 34 35 36 37
000
FTUS42 KRAH 021735
TAFRWI
TAF
KRWI 021735Z 0218/0318 33010KT P6SM SCT025 BKN250
      TEMPO 0219/0221 33012G19KT
     FM030000 07003KT P6SM SCT015
      TEMPO 0302/0306 BKN015
     FM030600 07005KT P6SM SCT015 BKN050=

USA.gov is the U.S. government's official web portal to all federal, state and local government web resources and services.